Time;durP1;ratioP1;P1;durP2;ratioP2;P2;SDS_P1;SDS_P2;PMS_P1;PMS_P2;Temp;Humidity;BMP_temperature;BMP_pressure;BME280_temperature;BME280_humidity;BME280_pressure;Samples;Min_cycle;Max_cycle;Signal;HPM_P1;HPM_P2
2022/07/29 00:00:50;;;;;;;1.30;1.10;;;;;;;;;;5150816;27;20474;-68
2022/07/29 00:03:16;;;;;;;2.20;1.27;;;;;;;;;;5145579;27;20058;-68
2022/07/29 00:05:43;;;;;;;1.92;1.38;;;;;;;;;;5149130;27;20055;-69
2022/07/29 00:08:09;;;;;;;2.28;1.70;;;;;;;;;;5153160;27;20112;-68
2022/07/29 00:10:38;;;;;;;2.80;1.48;;;;;;;;;;5143013;27;20057;-68
2022/07/29 00:13:04;;;;;;;1.67;1.30;;;;;;;;;;5139370;27;20108;-69
2022/07/29 00:15:31;;;;;;;6.28;1.50;;;;;;;;;;5150557;27;20395;-69
2022/07/29 00:17:57;;;;;;;2.25;1.40;;;;;;;;;;5150258;27;20210;-68
2022/07/29 00:20:23;;;;;;;1.33;1.23;;;;;;;;;;5143347;27;20060;-69
2022/07/29 00:22:50;;;;;;;3.55;1.30;;;;;;;;;;5135642;27;20062;-68
2022/07/29 00:25:16;;;;;;;6.97;2.00;;;;;;;;;;5146078;27;20055;-68
2022/07/29 00:27:42;;;;;;;1.35;1.25;;;;;;;;;;5140991;27;20047;-68
2022/07/29 00:30:09;;;;;;;3.63;1.60;;;;;;;;;;5149724;27;20509;-69
2022/07/29 00:32:35;;;;;;;5.43;1.40;;;;;;;;;;5133251;27;20047;-68
2022/07/29 00:37:47;;;;;;;2.13;1.45;;;;;;;;;;5150084;27;20686;-69
2022/07/29 00:40:13;;;;;;;2.67;1.60;;;;;;;;;;5149325;27;20079;-68
2022/07/29 00:42:46;;;;;;;1.83;1.15;;;;;;;;;;5154159;27;20555;-68
2022/07/29 00:45:14;;;;;;;1.77;1.20;;;;;;;;;;5154276;27;20608;-69
2022/07/29 00:47:40;;;;;;;2.05;1.20;;;;;;;;;;5147356;27;20074;-69
2022/07/29 00:50:07;;;;;;;4.35;1.40;;;;;;;;;;5153785;27;20517;-69
2022/07/29 00:52:35;;;;;;;3.42;1.60;;;;;;;;;;5150897;27;20517;-68
2022/07/29 00:55:05;;;;;;;2.03;1.15;;;;;;;;;;5153416;27;20048;-69
2022/07/29 00:57:34;;;;;;;2.20;1.33;;;;;;;;;;5153717;27;20077;-69
2022/07/29 01:00:01;;;;;;;4.78;1.73;;;;;;;;;;5152148;27;20057;-68
2022/07/29 01:02:27;;;;;;;4.05;1.10;;;;;;;;;;5136067;27;20138;-69
2022/07/29 01:04:55;;;;;;;3.40;1.65;;;;;;;;;;5141090;27;20139;-68
2022/07/29 01:07:21;;;;;;;4.60;1.40;;;;;;;;;;5141653;27;20454;-68
2022/07/29 01:09:47;;;;;;;1.35;0.98;;;;;;;;;;5143897;27;20145;-69
2022/07/29 01:12:16;;;;;;;3.55;1.30;;;;;;;;;;5144642;27;20056;-68
2022/07/29 01:14:43;;;;;;;3.60;1.15;;;;;;;;;;5144714;27;20047;-68
2022/07/29 01:17:41;;;;;;;3.55;1.20;;;;;;;;;;5134176;27;20640;-68
2022/07/29 01:20:18;;;;;;;3.53;1.20;;;;;;;;;;5100882;27;20058;-68
2022/07/29 01:23:03;;;;;;;2.15;1.30;;;;;;;;;;5151498;27;20145;-68
2022/07/29 01:25:32;;;;;;;6.27;1.20;;;;;;;;;;5149771;27;20058;-68
2022/07/29 01:28:18;;;;;;;5.50;1.45;;;;;;;;;;5153903;27;20055;-68
2022/07/29 01:30:53;;;;;;;2.60;1.23;;;;;;;;;;5149862;27;20083;-69
2022/07/29 01:34:10;;;;;;;4.43;1.52;;;;;;;;;;5153596;27;20950;-68
2022/07/29 01:36:13;;;;;;;3.72;1.45;;;;;;;;;;5140573;27;20562;-68
2022/07/29 01:38:41;;;;;;;4.03;1.27;;;;;;;;;;5146609;27;20055;-69
2022/07/29 01:41:10;;;;;;;3.22;1.02;;;;;;;;;;5143194;27;20075;-69
2022/07/29 01:43:43;;;;;;;2.10;1.33;;;;;;;;;;5145056;27;20090;-68
2022/07/29 01:46:12;;;;;;;2.42;1.55;;;;;;;;;;5150042;27;20090;-68
2022/07/29 01:48:44;;;;;;;1.35;1.20;;;;;;;;;;5145462;27;20492;-68
2022/07/29 01:51:28;;;;;;;2.63;1.60;;;;;;;;;;5144845;27;20055;-68
2022/07/29 01:54:01;;;;;;;3.65;1.60;;;;;;;;;;5151527;27;20108;-68
2022/07/29 01:56:30;;;;;;;2.33;1.45;;;;;;;;;;5149696;27;20047;-68
2022/07/29 01:58:58;;;;;;;3.58;1.45;;;;;;;;;;5152536;27;20051;-68
2022/07/29 02:01:26;;;;;;;5.18;1.80;;;;;;;;;;5152491;27;20146;-68
2022/07/29 02:03:53;;;;;;;2.13;1.65;;;;;;;;;;5154687;27;20078;-68
2022/07/29 02:06:21;;;;;;;4.03;1.55;;;;;;;;;;5147279;27;20051;-69
2022/07/29 02:08:48;;;;;;;3.10;1.60;;;;;;;;;;5152856;27;20100;-68
2022/07/29 02:11:16;;;;;;;4.45;2.05;;;;;;;;;;5148659;27;20062;-69
2022/07/29 02:13:43;;;;;;;4.35;2.08;;;;;;;;;;5155367;27;20528;-68
2022/07/29 02:16:10;;;;;;;4.70;1.67;;;;;;;;;;5151498;27;20051;-68
2022/07/29 02:18:38;;;;;;;4.93;1.80;;;;;;;;;;5152190;27;20043;-68
2022/07/29 02:21:05;;;;;;;2.15;1.45;;;;;;;;;;5150995;27;20147;-68
2022/07/29 02:23:40;;;;;;;4.38;1.58;;;;;;;;;;5150360;27;20078;-68
2022/07/29 02:26:17;;;;;;;5.60;1.80;;;;;;;;;;5142867;27;20392;-69
2022/07/29 02:28:43;;;;;;;3.55;1.50;;;;;;;;;;5149751;27;20510;-68
2022/07/29 02:31:10;;;;;;;7.10;1.65;;;;;;;;;;5144964;27;20047;-68
2022/07/29 02:33:37;;;;;;;4.97;1.70;;;;;;;;;;5148134;27;20051;-68
2022/07/29 02:36:03;;;;;;;5.50;2.00;;;;;;;;;;5154360;27;20043;-67
2022/07/29 02:41:29;;;;;;;3.22;1.55;;;;;;;;;;5142998;27;20154;-68
2022/07/29 02:43:58;;;;;;;5.03;2.05;;;;;;;;;;5146396;27;20047;-68
2022/07/29 02:46:27;;;;;;;4.60;1.50;;;;;;;;;;5145791;27;20491;-69
2022/07/29 02:48:57;;;;;;;2.45;1.50;;;;;;;;;;5138431;27;20062;-68
2022/07/29 02:51:39;;;;;;;3.85;1.70;;;;;;;;;;5144356;27;20048;-68
2022/07/29 02:54:10;;;;;;;;;;;;;;;;;;5144263;27;20082;-69
2022/07/29 02:56:37;;;;;;;3.05;1.65;;;;;;;;;;5137046;27;45709;-69
2022/07/29 02:59:09;;;;;;;2.95;1.85;;;;;;;;;;5133923;27;20052;-69
2022/07/29 03:01:38;;;;;;;3.70;2.05;;;;;;;;;;5144470;27;20056;-69
2022/07/29 03:04:05;;;;;;;3.45;1.80;;;;;;;;;;5143525;27;20110;-70
2022/07/29 03:06:32;;;;;;;3.10;1.55;;;;;;;;;;5138859;27;20055;-70
2022/07/29 03:09:04;;;;;;;3.80;1.90;;;;;;;;;;5150224;27;20055;-69
2022/07/29 03:11:38;;;;;;;4.55;1.88;;;;;;;;;;5143877;27;20052;-68
2022/07/29 03:14:16;;;;;;;2.97;1.80;;;;;;;;;;5144288;27;20055;-68
2022/07/29 03:16:43;;;;;;;2.20;1.60;;;;;;;;;;5151893;27;20043;-68
2022/07/29 03:19:10;;;;;;;3.05;1.60;;;;;;;;;;5150609;27;20120;-68
2022/07/29 03:21:36;;;;;;;4.88;2.00;;;;;;;;;;5141429;27;20134;-68
2022/07/29 03:24:03;;;;;;;5.43;1.90;;;;;;;;;;5143999;27;20098;-68
2022/07/29 03:26:38;;;;;;;1.88;1.67;;;;;;;;;;5150711;27;20429;-68
2022/07/29 03:29:04;;;;;;;5.03;1.75;;;;;;;;;;5141777;27;20094;-68
2022/07/29 03:31:31;;;;;;;5.88;2.42;;;;;;;;;;5140649;27;20494;-68
2022/07/29 03:33:58;;;;;;;5.63;2.10;;;;;;;;;;5153171;27;20047;-68
2022/07/29 03:36:25;;;;;;;3.03;2.47;;;;;;;;;;5147176;27;20574;-68
2022/07/29 03:38:51;;;;;;;6.57;2.35;;;;;;;;;;5145280;27;20054;-68
2022/07/29 03:41:18;;;;;;;5.72;2.78;;;;;;;;;;5135369;27;20051;-68
2022/07/29 03:43:49;;;;;;;6.47;2.78;;;;;;;;;;5145413;27;20069;-68
2022/07/29 03:46:16;;;;;;;6.30;3.38;;;;;;;;;;5152442;27;20142;-68
2022/07/29 03:48:46;;;;;;;4.90;3.03;;;;;;;;;;5146977;27;20097;-68
2022/07/29 03:51:13;;;;;;;6.28;3.40;;;;;;;;;;5148962;27;20615;-68
2022/07/29 03:53:39;;;;;;;5.93;3.28;;;;;;;;;;5149925;27;20171;-68
2022/07/29 03:56:06;;;;;;;10.18;2.97;;;;;;;;;;5150558;27;20579;-68
2022/07/29 03:58:33;;;;;;;4.85;2.78;;;;;;;;;;5152662;27;20046;-68
2022/07/29 04:00:59;;;;;;;3.38;2.90;;;;;;;;;;5151206;27;20051;-67
2022/07/29 04:03:25;;;;;;;6.30;2.60;;;;;;;;;;5141044;27;20043;-68
2022/07/29 04:06:02;;;;;;;5.80;2.70;;;;;;;;;;5150722;27;20058;-68
2022/07/29 04:08:28;;;;;;;4.70;2.60;;;;;;;;;;5141123;27;20100;-68
2022/07/29 04:10:55;;;;;;;5.05;2.88;;;;;;;;;;5148628;27;20138;-68
2022/07/29 04:13:21;;;;;;;6.75;3.00;;;;;;;;;;5153247;27;20137;-68
2022/07/29 04:15:47;;;;;;;3.38;2.30;;;;;;;;;;5152030;27;20916;-69
2022/07/29 04:18:14;;;;;;;3.53;2.33;;;;;;;;;;5141881;27;20508;-68
2022/07/29 04:20:40;;;;;;;3.55;2.22;;;;;;;;;;5143537;27;20335;-68
2022/07/29 04:23:06;;;;;;;3.80;2.95;;;;;;;;;;5150039;27;20502;-68
2022/07/29 04:25:33;;;;;;;7.68;3.95;;;;;;;;;;5143760;27;20047;-68
2022/07/29 04:28:02;;;;;;;7.93;3.78;;;;;;;;;;5153046;27;20049;-68
2022/07/29 04:30:28;;;;;;;6.70;4.32;;;;;;;;;;5149738;27;20052;-68
2022/07/29 04:32:55;;;;;;;6.45;4.80;;;;;;;;;;5145511;27;20097;-68
2022/07/29 04:35:21;;;;;;;8.00;4.93;;;;;;;;;;5150530;27;20055;-69
2022/07/29 04:37:47;;;;;;;8.27;4.28;;;;;;;;;;5150636;27;20545;-68
2022/07/29 04:40:14;;;;;;;10.23;4.05;;;;;;;;;;5151320;27;20058;-68
2022/07/29 04:42:40;;;;;;;6.70;3.65;;;;;;;;;;5142798;27;20489;-67
2022/07/29 04:45:12;;;;;;;6.47;3.58;;;;;;;;;;5147436;27;20069;-68
2022/07/29 04:47:39;;;;;;;5.90;3.70;;;;;;;;;;5148482;27;20058;-69
2022/07/29 04:50:06;;;;;;;8.27;3.35;;;;;;;;;;5150136;27;20143;-68
2022/07/29 04:52:34;;;;;;;5.88;3.10;;;;;;;;;;5148444;27;20444;-68
2022/07/29 04:55:01;;;;;;;5.28;3.47;;;;;;;;;;5145879;27;20514;-68
2022/07/29 04:57:27;;;;;;;3.28;2.28;;;;;;;;;;5148206;27;20130;-68
2022/07/29 04:59:54;;;;;;;5.05;2.50;;;;;;;;;;5149727;27;20496;-68
2022/07/29 05:02:21;;;;;;;5.47;2.45;;;;;;;;;;5139321;27;20062;-69
2022/07/29 05:04:48;;;;;;;3.58;2.38;;;;;;;;;;5137482;27;20051;-68
2022/07/29 05:07:14;;;;;;;8.88;2.80;;;;;;;;;;5144298;27;20057;-68
2022/07/29 05:09:40;;;;;;;3.60;1.95;;;;;;;;;;5151365;27;20102;-68
2022/07/29 05:12:07;;;;;;;5.43;2.45;;;;;;;;;;5143196;27;20055;-68
2022/07/29 05:14:33;;;;;;;4.35;2.45;;;;;;;;;;5144989;27;20051;-68
2022/07/29 05:17:00;;;;;;;5.25;2.28;;;;;;;;;;5149058;27;20048;-67
2022/07/29 05:19:26;;;;;;;4.75;2.35;;;;;;;;;;5147827;27;20055;-68
2022/07/29 05:21:52;;;;;;;10.00;2.97;;;;;;;;;;5139960;27;20053;-68
2022/07/29 05:24:19;;;;;;;2.92;2.28;;;;;;;;;;5137593;27;20957;-68
2022/07/29 05:26:45;;;;;;;4.90;2.83;;;;;;;;;;5147752;27;20062;-68
2022/07/29 05:29:12;;;;;;;3.53;2.30;;;;;;;;;;5153653;27;20496;-69
2022/07/29 05:31:58;;;;;;;3.25;2.45;;;;;;;;;;5154226;27;20517;-68
2022/07/29 05:34:25;;;;;;;4.70;2.55;;;;;;;;;;5143196;27;20498;-68
2022/07/29 05:36:52;;;;;;;9.70;2.90;;;;;;;;;;5139537;27;20051;-68
2022/07/29 05:39:18;;;;;;;7.28;2.60;;;;;;;;;;5151014;27;20516;-68
2022/07/29 05:41:44;;;;;;;2.53;2.17;;;;;;;;;;5153484;27;20059;-67
2022/07/29 05:44:17;;;;;;;5.03;2.58;;;;;;;;;;5141151;27;20100;-68
2022/07/29 05:46:43;;;;;;;5.22;2.60;;;;;;;;;;5153215;27;20058;-67
2022/07/29 05:49:11;;;;;;;7.40;2.88;;;;;;;;;;5152060;27;20047;-68
2022/07/29 05:51:52;;;;;;;3.92;2.45;;;;;;;;;;5145797;27;20578;-69
2022/07/29 05:54:18;;;;;;;4.82;2.22;;;;;;;;;;5146326;27;20051;-67
2022/07/29 05:56:44;;;;;;;6.65;2.08;;;;;;;;;;5150216;27;20053;-67
2022/07/29 05:59:12;;;;;;;5.32;2.40;;;;;;;;;;5145149;27;20541;-68
2022/07/29 06:01:43;;;;;;;6.55;2.28;;;;;;;;;;5148980;27;20054;-67
2022/07/29 06:04:10;;;;;;;5.80;2.38;;;;;;;;;;5154916;27;20057;-67
2022/07/29 06:06:36;;;;;;;4.45;2.75;;;;;;;;;;5150115;27;20059;-67
2022/07/29 06:09:03;;;;;;;4.25;2.53;;;;;;;;;;5149171;27;20055;-67
2022/07/29 06:11:38;;;;;;;6.53;3.10;;;;;;;;;;5154738;27;20108;-67
2022/07/29 06:14:04;;;;;;;4.20;2.50;;;;;;;;;;5153842;27;20413;-67
2022/07/29 06:16:31;;;;;;;5.43;2.80;;;;;;;;;;5153316;27;20043;-69
2022/07/29 06:18:57;;;;;;;4.65;2.80;;;;;;;;;;5151452;27;20051;-69
2022/07/29 06:21:24;;;;;;;3.83;2.75;;;;;;;;;;5150547;27;20528;-68
2022/07/29 06:23:50;;;;;;;4.47;2.95;;;;;;;;;;5147335;27;20043;-68
2022/07/29 06:26:16;;;;;;;8.95;2.80;;;;;;;;;;5149534;27;20143;-68
2022/07/29 06:28:42;;;;;;;7.15;2.80;;;;;;;;;;5154707;27;20047;-69
2022/07/29 06:31:09;;;;;;;6.55;2.75;;;;;;;;;;5153523;27;20067;-68
2022/07/29 06:33:35;;;;;;;2.80;2.15;;;;;;;;;;5152096;27;20464;-67
2022/07/29 06:36:03;;;;;;;3.83;2.63;;;;;;;;;;5150576;27;20533;-68
2022/07/29 06:38:29;;;;;;;6.45;2.53;;;;;;;;;;5152361;27;20586;-68
2022/07/29 06:41:09;;;;;;;3.53;2.22;;;;;;;;;;5154460;27;20398;-68
2022/07/29 06:43:37;;;;;;;3.47;2.20;;;;;;;;;;5152376;27;20135;-69
2022/07/29 06:46:18;;;;;;;4.38;2.28;;;;;;;;;;5150585;27;20131;-68
2022/07/29 06:48:44;;;;;;;3.75;2.08;;;;;;;;;;5145015;27;20093;-69
2022/07/29 06:51:11;;;;;;;4.47;2.10;;;;;;;;;;5150082;27;20054;-69
2022/07/29 06:53:38;;;;;;;3.85;2.00;;;;;;;;;;5147137;27;20138;-69
2022/07/29 06:56:25;;;;;;;5.25;2.05;;;;;;;;;;5136418;27;20060;-69
2022/07/29 06:58:51;;;;;;;3.35;1.90;;;;;;;;;;5146122;27;20502;-69
2022/07/29 07:01:18;;;;;;;6.15;2.33;;;;;;;;;;5140336;27;20142;-70
2022/07/29 07:03:44;;;;;;;7.50;2.17;;;;;;;;;;5145038;27;20520;-71
2022/07/29 07:06:10;;;;;;;3.03;2.30;;;;;;;;;;5141617;27;20544;-70
2022/07/29 07:08:40;;;;;;;4.97;2.58;;;;;;;;;;5142450;27;20055;-69
2022/07/29 07:11:07;;;;;;;2.13;1.83;;;;;;;;;;5140403;27;20476;-70
2022/07/29 07:13:34;;;;;;;3.85;1.92;;;;;;;;;;5144348;27;20546;-69
2022/07/29 07:16:02;;;;;;;5.63;2.25;;;;;;;;;;5152311;27;20104;-69
2022/07/29 07:18:32;;;;;;;3.60;2.33;;;;;;;;;;5143006;27;20047;-70
2022/07/29 07:20:59;;;;;;;5.82;2.22;;;;;;;;;;5144516;27;20186;-70
2022/07/29 07:23:25;;;;;;;3.78;2.28;;;;;;;;;;5153382;27;20074;-70
2022/07/29 07:25:52;;;;;;;7.57;2.60;;;;;;;;;;5152934;27;20054;-69
2022/07/29 07:28:18;;;;;;;4.53;2.63;;;;;;;;;;5152718;27;20547;-71
2022/07/29 07:30:50;;;;;;;4.43;2.50;;;;;;;;;;5152778;27;20525;-68
2022/07/29 07:33:16;;;;;;;4.95;2.55;;;;;;;;;;5153857;27;20458;-69
2022/07/29 07:35:44;;;;;;;4.25;2.70;;;;;;;;;;5154533;27;20062;-71
2022/07/29 07:38:10;;;;;;;2.78;2.10;;;;;;;;;;5150937;27;20139;-69
2022/07/29 07:40:36;;;;;;;4.65;2.10;;;;;;;;;;5153943;27;20055;-67
2022/07/29 07:43:03;;;;;;;6.35;2.70;;;;;;;;;;5154151;27;20052;-68
2022/07/29 07:45:29;;;;;;;4.82;2.00;;;;;;;;;;5153875;27;20122;-68
2022/07/29 07:47:55;;;;;;;5.25;2.25;;;;;;;;;;5151069;27;20062;-69
2022/07/29 07:50:22;;;;;;;4.70;2.70;;;;;;;;;;5151203;27;20051;-68
2022/07/29 07:52:52;;;;;;;3.95;2.20;;;;;;;;;;5153465;27;20062;-68
2022/07/29 07:55:19;;;;;;;4.32;2.45;;;;;;;;;;5152214;27;20051;-68
2022/07/29 07:57:45;;;;;;;4.65;2.30;;;;;;;;;;5149528;27;20506;-69
2022/07/29 08:00:13;;;;;;;4.38;2.50;;;;;;;;;;5142230;27;20043;-68
2022/07/29 08:02:39;;;;;;;7.03;2.40;;;;;;;;;;5153780;27;20051;-69
2022/07/29 08:05:07;;;;;;;4.80;2.35;;;;;;;;;;5152381;27;20051;-70
2022/07/29 08:07:37;;;;;;;3.75;2.45;;;;;;;;;;5153493;27;20055;-71
2022/07/29 08:10:04;;;;;;;5.00;2.05;;;;;;;;;;5152450;27;20069;-72
2022/07/29 08:12:30;;;;;;;6.38;3.15;;;;;;;;;;5153479;27;20057;-70
2022/07/29 08:14:57;;;;;;;5.22;2.47;;;;;;;;;;5153109;27;20051;-69
2022/07/29 08:17:23;;;;;;;3.88;2.42;;;;;;;;;;5153756;27;20054;-71
2022/07/29 08:19:50;;;;;;;5.95;2.85;;;;;;;;;;5152836;27;20077;-72
2022/07/29 08:22:16;;;;;;;3.85;2.63;;;;;;;;;;5152982;27;20047;-71
2022/07/29 08:24:42;;;;;;;2.83;2.60;;;;;;;;;;5150437;27;20058;-70
2022/07/29 08:27:09;;;;;;;4.25;2.60;;;;;;;;;;5151763;27;20568;-71
2022/07/29 08:29:57;;;;;;;4.28;2.55;;;;;;;;;;5153320;27;20490;-70
2022/07/29 08:32:24;;;;;;;3.67;2.55;;;;;;;;;;5136894;27;20057;-70
2022/07/29 08:35:16;;;;;;;6.90;3.10;;;;;;;;;;5152407;27;20054;-68
2022/07/29 08:37:42;;;;;;;3.53;2.80;;;;;;;;;;5146724;27;20047;-69
2022/07/29 08:40:12;;;;;;;6.13;2.90;;;;;;;;;;5132423;27;20147;-69
2022/07/29 08:42:40;;;;;;;9.73;2.97;;;;;;;;;;5152209;27;20055;-69
2022/07/29 08:45:06;;;;;;;3.90;2.55;;;;;;;;;;5152902;27;20062;-68
2022/07/29 08:47:33;;;;;;;8.82;3.40;;;;;;;;;;5151336;27;20051;-67
2022/07/29 08:49:59;;;;;;;8.50;2.88;;;;;;;;;;5152403;27;20150;-72
2022/07/29 08:52:26;;;;;;;4.60;3.00;;;;;;;;;;5153345;27;20142;-72
2022/07/29 08:54:52;;;;;;;6.45;3.00;;;;;;;;;;5152578;27;20489;-72
2022/07/29 08:57:19;;;;;;;6.03;3.00;;;;;;;;;;5151223;27;20047;-71
2022/07/29 08:59:48;;;;;;;4.13;2.65;;;;;;;;;;5152231;27;20047;-69
2022/07/29 09:02:27;;;;;;;4.60;2.45;;;;;;;;;;5151779;27;20051;-70
2022/07/29 09:04:53;;;;;;;7.70;2.78;;;;;;;;;;5156837;27;20264;-74
2022/07/29 09:07:21;;;;;;;4.20;2.47;;;;;;;;;;5155295;27;20501;-70
2022/07/29 09:09:47;;;;;;;4.30;2.72;;;;;;;;;;5153228;27;20051;-74
2022/07/29 09:12:14;;;;;;;4.47;2.80;;;;;;;;;;5156366;27;20422;-72
2022/07/29 09:14:54;;;;;;;7.50;2.85;;;;;;;;;;5155896;27;20054;-73
2022/07/29 09:17:41;;;;;;;12.43;2.90;;;;;;;;;;5154753;27;20130;-74
2022/07/29 09:20:08;;;;;;;7.70;2.78;;;;;;;;;;5154802;27;20146;-73
2022/07/29 09:22:35;;;;;;;6.35;2.60;;;;;;;;;;5154789;27;20137;-74
2022/07/29 09:25:07;;;;;;;6.15;2.70;;;;;;;;;;5155789;27;20984;-74
2022/07/29 09:27:34;;;;;;;6.22;2.67;;;;;;;;;;5148986;27;20142;-74
2022/07/29 09:30:03;;;;;;;6.07;2.53;;;;;;;;;;5154938;27;20051;-74
2022/07/29 09:32:30;;;;;;;4.15;2.95;;;;;;;;;;5155224;27;20055;-75
2022/07/29 09:35:16;;;;;;;5.28;2.78;;;;;;;;;;5156214;27;20522;-74
2022/07/29 09:37:43;;;;;;;7.15;3.47;;;;;;;;;;5156459;27;20418;-72
2022/07/29 09:40:12;;;;;;;5.88;4.10;;;;;;;;;;5156425;27;20062;-74
2022/07/29 09:42:40;;;;;;;7.20;3.67;;;;;;;;;;5143976;27;20083;-74
2022/07/29 09:45:06;;;;;;;6.80;3.45;;;;;;;;;;5155275;27;20506;-74
2022/07/29 09:47:44;;;;;;;8.77;3.40;;;;;;;;;;5152750;27;20051;-74
2022/07/29 09:50:11;;;;;;;5.28;3.17;;;;;;;;;;5155470;27;20100;-74
2022/07/29 09:52:51;;;;;;;6.65;3.63;;;;;;;;;;5155429;27;20519;-73
2022/07/29 09:55:18;;;;;;;5.90;3.30;;;;;;;;;;5156093;27;20126;-74
2022/07/29 09:57:46;;;;;;;4.60;3.15;;;;;;;;;;5158397;27;20097;-71
2022/07/29 10:00:14;;;;;;;5.72;3.45;;;;;;;;;;5157357;27;20065;-72
2022/07/29 10:02:43;;;;;;;5.53;3.08;;;;;;;;;;5160570;27;20057;-72
2022/07/29 10:05:23;;;;;;;7.05;3.03;;;;;;;;;;5157934;27;20499;-72
2022/07/29 10:07:49;;;;;;;7.70;3.45;;;;;;;;;;5154096;27;20053;-71
2022/07/29 10:10:23;;;;;;;7.22;3.08;;;;;;;;;;5156480;27;20063;-71
2022/07/29 10:12:55;;;;;;;9.55;2.80;;;;;;;;;;5155265;27;20126;-71
2022/07/29 10:15:27;;;;;;;4.45;2.88;;;;;;;;;;5151686;27;20051;-70
2022/07/29 10:17:55;;;;;;;5.13;3.03;;;;;;;;;;5152843;27;20142;-71
2022/07/29 10:20:22;;;;;;;4.18;2.53;;;;;;;;;;5154291;27;20062;-71
2022/07/29 10:22:49;;;;;;;6.45;3.10;;;;;;;;;;5155048;27;20051;-71
2022/07/29 10:25:19;;;;;;;6.82;3.08;;;;;;;;;;5149619;27;20134;-71
2022/07/29 10:27:47;;;;;;;7.05;3.10;;;;;;;;;;5149981;27;20112;-71
2022/07/29 10:30:15;;;;;;;5.60;3.15;;;;;;;;;;5139816;27;20138;-70
2022/07/29 10:32:48;;;;;;;5.72;3.25;;;;;;;;;;5153587;27;20047;-69
2022/07/29 10:35:22;;;;;;;11.38;3.40;;;;;;;;;;5151617;27;20094;-69
2022/07/29 10:38:08;;;;;;;6.25;3.10;;;;;;;;;;5154134;27;20050;-70
2022/07/29 10:43:37;;;;;;;11.48;3.25;;;;;;;;;;5154697;27;20158;-70
2022/07/29 10:46:04;;;;;;;7.68;2.92;;;;;;;;;;5153520;27;20102;-70
2022/07/29 10:48:33;;;;;;;3.50;2.60;;;;;;;;;;5155032;27;20055;-70
2022/07/29 10:51:03;;;;;;;6.10;2.42;;;;;;;;;;5155130;27;20051;-69
2022/07/29 10:53:51;;;;;;;6.85;3.10;;;;;;;;;;5153845;27;20166;-69
2022/07/29 10:56:26;;;;;;;9.05;3.00;;;;;;;;;;5153922;27;20112;-70
2022/07/29 10:59:13;;;;;;;6.30;3.20;;;;;;;;;;5153030;27;20089;-70
2022/07/29 11:01:39;;;;;;;8.25;3.13;;;;;;;;;;5143607;27;20090;-70
2022/07/29 11:04:15;;;;;;;10.55;3.50;;;;;;;;;;5154022;27;20051;-73
2022/07/29 11:07:07;;;;;;;5.00;3.13;;;;;;;;;;5152918;27;20540;-73
2022/07/29 11:09:35;;;;;;;6.55;3.00;;;;;;;;;;5152259;27;20062;-72
2022/07/29 11:12:03;;;;;;;7.35;2.80;;;;;;;;;;5141422;27;20059;-72
2022/07/29 11:14:49;;;;;;;4.22;2.75;;;;;;;;;;5151752;27;20047;-72
2022/07/29 11:17:15;;;;;;;4.53;2.60;;;;;;;;;;5146158;27;20151;-74
2022/07/29 11:19:42;;;;;;;9.77;3.33;;;;;;;;;;5154375;27;20093;-73
2022/07/29 11:22:31;;;;;;;7.97;3.35;;;;;;;;;;5154450;27;20136;-71
2022/07/29 11:25:14;;;;;;;6.35;3.17;;;;;;;;;;5150251;27;20055;-72
2022/07/29 11:27:42;;;;;;;5.60;2.67;;;;;;;;;;5153006;27;20147;-74
2022/07/29 11:30:11;;;;;;;3.75;2.70;;;;;;;;;;5154043;27;20079;-74
2022/07/29 11:32:40;;;;;;;3.25;2.47;;;;;;;;;;5141135;27;20076;-72
2022/07/29 11:35:21;;;;;;;5.80;2.45;;;;;;;;;;5141783;27;20081;-74
2022/07/29 11:38:23;;;;;;;7.32;2.72;;;;;;;;;;5151974;27;20055;-72
2022/07/29 11:41:11;;;;;;;8.00;2.58;;;;;;;;;;5151913;27;20142;-72
2022/07/29 11:43:48;;;;;;;3.72;2.40;;;;;;;;;;5153813;27;20062;-73
2022/07/29 11:46:16;;;;;;;4.00;2.30;;;;;;;;;;5151310;27;20051;-74
2022/07/29 11:48:50;;;;;;;5.47;2.28;;;;;;;;;;5151800;27;20127;-73
2022/07/29 11:51:17;;;;;;;2.88;2.03;;;;;;;;;;5151873;27;20051;-74
2022/07/29 11:53:58;;;;;;;5.97;2.95;;;;;;;;;;5133518;27;20058;-73
2022/07/29 11:56:31;;;;;;;4.75;2.25;;;;;;;;;;5141157;27;20051;-73
2022/07/29 11:59:05;;;;;;;5.32;2.72;;;;;;;;;;5152728;27;20055;-73
2022/07/29 12:01:53;;;;;;;4.30;2.25;;;;;;;;;;5151551;27;20051;-72
2022/07/29 12:04:52;;;;;;;6.22;2.33;;;;;;;;;;5153853;27;20062;-72
2022/07/29 12:07:30;;;;;;;5.85;2.05;;;;;;;;;;5152140;27;20190;-72
2022/07/29 12:10:01;;;;;;;10.95;2.47;;;;;;;;;;5152191;27;20055;-72
2022/07/29 12:12:28;;;;;;;7.22;2.33;;;;;;;;;;5152426;27;20050;-72
2022/07/29 12:14:55;;;;;;;4.75;2.33;;;;;;;;;;5153406;27;20055;-74
2022/07/29 12:17:25;;;;;;;10.40;2.60;;;;;;;;;;5152151;27;20464;-74
2022/07/29 12:19:57;;;;;;;4.68;2.35;;;;;;;;;;5151101;27;20061;-74
2022/07/29 12:22:25;;;;;;;6.88;2.30;;;;;;;;;;5148267;27;20066;-74
2022/07/29 12:24:53;;;;;;;6.55;2.35;;;;;;;;;;5147035;27;20051;-74
2022/07/29 12:27:39;;;;;;;3.67;2.63;;;;;;;;;;5140696;27;20853;-71
2022/07/29 12:30:07;;;;;;;6.15;2.30;;;;;;;;;;5151007;27;20417;-74
2022/07/29 12:32:35;;;;;;;9.07;2.65;;;;;;;;;;5143197;27;20063;-73
2022/07/29 12:35:07;;;;;;;5.07;2.50;;;;;;;;;;5149753;27;20060;-74
2022/07/29 12:37:34;;;;;;;5.05;2.55;;;;;;;;;;5151555;27;20051;-71
2022/07/29 12:40:12;;;;;;;6.43;2.27;;;;;;;;;;5147896;27;20136;-70
2022/07/29 12:42:38;;;;;;;7.28;2.67;;;;;;;;;;5143384;27;20570;-69
2022/07/29 12:45:07;;;;;;;6.45;2.40;;;;;;;;;;5143895;27;20453;-72
2022/07/29 12:47:50;;;;;;;4.97;2.53;;;;;;;;;;5144643;27;20589;-73
2022/07/29 12:50:17;;;;;;;4.82;2.00;;;;;;;;;;5144001;27;20051;-75
2022/07/29 12:52:49;;;;;;;4.47;2.40;;;;;;;;;;5139642;27;20058;-74
2022/07/29 12:55:16;;;;;;;6.15;2.75;;;;;;;;;;5142420;27;20062;-77
2022/07/29 12:57:53;;;;;;;6.18;3.15;;;;;;;;;;5143251;27;20055;-76
2022/07/29 13:00:23;;;;;;;7.03;2.58;;;;;;;;;;5136180;27;20139;-73
2022/07/29 13:02:58;;;;;;;7.13;2.65;;;;;;;;;;5142593;27;20055;-72
2022/07/29 13:05:38;;;;;;;4.65;2.83;;;;;;;;;;5148919;27;20047;-75
2022/07/29 13:08:12;;;;;;;7.43;2.80;;;;;;;;;;5153761;27;20496;-74
2022/07/29 13:10:47;;;;;;;7.03;2.92;;;;;;;;;;5135369;27;20521;-76
2022/07/29 13:13:15;;;;;;;7.43;3.20;;;;;;;;;;5143155;27;20067;-75
2022/07/29 13:15:48;;;;;;;10.68;3.30;;;;;;;;;;5151535;27;20090;-79
2022/07/29 13:18:44;;;;;;;5.63;3.22;;;;;;;;;;5152137;27;20057;-72
2022/07/29 13:21:14;;;;;;;5.18;3.00;;;;;;;;;;5130445;27;20051;-75
2022/07/29 13:23:41;;;;;;;5.28;2.83;;;;;;;;;;5154715;27;20490;-73
2022/07/29 13:26:08;;;;;;;10.82;2.78;;;;;;;;;;5154205;27;20577;-75
2022/07/29 13:28:35;;;;;;;4.90;2.40;;;;;;;;;;5154205;27;20572;-73
2022/07/29 13:31:01;;;;;;;7.28;2.70;;;;;;;;;;5147777;27;20050;-74
2022/07/29 13:33:28;;;;;;;8.27;3.55;;;;;;;;;;5151385;27;20051;-75
2022/07/29 13:35:55;;;;;;;6.35;2.85;;;;;;;;;;5153551;27;20051;-72
2022/07/29 13:38:22;;;;;;;7.30;3.03;;;;;;;;;;5157549;27;20079;-76
2022/07/29 13:40:56;;;;;;;9.80;4.47;;;;;;;;;;5155049;27;20051;-75
2022/07/29 13:43:22;;;;;;;9.57;2.50;;;;;;;;;;5154031;27;20236;-73
2022/07/29 13:45:49;;;;;;;10.30;3.17;;;;;;;;;;5142819;27;20083;-70
2022/07/29 13:48:15;;;;;;;4.88;3.15;;;;;;;;;;5149858;27;20203;-72
2022/07/29 13:50:41;;;;;;;8.95;2.47;;;;;;;;;;5164173;27;20098;-73
2022/07/29 13:53:08;;;;;;;3.85;2.28;;;;;;;;;;5162597;27;20143;-74
2022/07/29 13:55:42;;;;;;;;;;;;;;;;;;5137317;27;20063;-73
2022/07/29 13:58:09;;;;;;;5.22;2.45;;;;;;;;;;5152269;27;44735;-73
2022/07/29 14:00:35;;;;;;;5.88;2.85;;;;;;;;;;5138034;27;20066;-73
2022/07/29 14:03:01;;;;;;;9.90;3.75;;;;;;;;;;5136090;27;20106;-72
2022/07/29 14:05:28;;;;;;;8.55;3.60;;;;;;;;;;5149911;27;20170;-73
2022/07/29 14:07:54;;;;;;;7.05;3.40;;;;;;;;;;5139521;27;20055;-72
2022/07/29 14:10:20;;;;;;;7.35;3.50;;;;;;;;;;5154198;27;20525;-75
2022/07/29 14:12:47;;;;;;;9.13;2.78;;;;;;;;;;5153675;27;20051;-72
2022/07/29 14:15:13;;;;;;;8.48;3.00;;;;;;;;;;5155744;27;20134;-76
2022/07/29 14:17:39;;;;;;;5.00;3.22;;;;;;;;;;5142383;27;20062;-72
2022/07/29 14:20:06;;;;;;;6.07;3.10;;;;;;;;;;5139697;27;20066;-74
2022/07/29 14:22:33;;;;;;;9.75;2.88;;;;;;;;;;5142894;27;20059;-75
2022/07/29 14:25:05;;;;;;;5.88;3.38;;;;;;;;;;5145270;27;20087;-75
2022/07/29 14:27:40;;;;;;;7.68;3.00;;;;;;;;;;5146858;27;20147;-73
2022/07/29 14:30:07;;;;;;;8.15;3.58;;;;;;;;;;5145365;27;20942;-71
2022/07/29 14:32:34;;;;;;;4.82;2.70;;;;;;;;;;5144895;27;20137;-72
2022/07/29 14:35:01;;;;;;;4.43;2.80;;;;;;;;;;5141979;27;20425;-74
2022/07/29 14:37:27;;;;;;;6.10;3.17;;;;;;;;;;5138444;27;20153;-72
2022/07/29 14:40:05;;;;;;;9.35;2.92;;;;;;;;;;5152697;27;20054;-74
2022/07/29 14:42:31;;;;;;;6.90;3.08;;;;;;;;;;5138795;27;20051;-74
2022/07/29 14:44:58;;;;;;;8.68;2.40;;;;;;;;;;5150095;27;20047;-74
2022/07/29 14:47:24;;;;;;;6.53;3.05;;;;;;;;;;5138960;27;20057;-73
2022/07/29 14:49:50;;;;;;;8.40;3.35;;;;;;;;;;5145225;27;20052;-75
2022/07/29 14:52:19;;;;;;;6.45;2.63;;;;;;;;;;5142892;27;20047;-74
2022/07/29 14:54:45;;;;;;;4.90;2.45;;;;;;;;;;5147806;27;20488;-73
2022/07/29 14:57:12;;;;;;;5.88;2.28;;;;;;;;;;5143342;27;20061;-74
2022/07/29 14:59:38;;;;;;;6.32;2.33;;;;;;;;;;5133241;27;20047;-73
2022/07/29 15:02:05;;;;;;;5.40;2.17;;;;;;;;;;5151894;27;20061;-72
2022/07/29 15:04:31;;;;;;;5.35;2.50;;;;;;;;;;5148567;27;20196;-72
2022/07/29 15:06:57;;;;;;;5.50;2.72;;;;;;;;;;5141791;27;20054;-73